createdAt,value
2023-04-01T00:00:41.193Z,17.50
2023-04-01T00:03:34.660Z,14.30
2023-04-01T00:06:27.355Z,14.70
2023-04-01T00:09:15.834Z,14.20
2023-04-01T00:12:12.844Z,15.70
2023-04-01T00:15:02.225Z,16.60
2023-04-01T00:17:48.133Z,15.30
2023-04-01T00:20:34.534Z,16.20
2023-04-01T00:23:18.387Z,13.40
2023-04-01T00:26:26.352Z,16.10
2023-04-01T00:29:09.968Z,17.40
2023-04-01T00:32:05.182Z,16.00
2023-04-01T00:34:53.957Z,18.10
2023-04-01T00:37:42.914Z,18.60
2023-04-01T00:40:43.439Z,18.00
2023-04-01T00:43:27.213Z,18.50
2023-04-01T00:46:20.792Z,19.70
2023-04-01T00:49:06.856Z,17.60
2023-04-01T00:52:03.002Z,18.60
2023-04-01T00:54:52.465Z,17.10
2023-04-01T00:57:58.142Z,16.90
2023-04-01T01:01:01.942Z,20.40
2023-04-01T01:03:45.623Z,16.80
2023-04-01T01:06:53.755Z,18.90
2023-04-01T01:10:11.294Z,15.70
2023-04-01T01:13:24.039Z,17.50
2023-04-01T01:16:35.193Z,18.40
2023-04-01T01:19:42.699Z,18.40
2023-04-01T01:22:44.168Z,17.10
2023-04-01T01:25:56.887Z,16.50
2023-04-01T01:29:01.932Z,16.40
2023-04-01T01:32:04.672Z,18.00
2023-04-01T01:34:58.756Z,16.30
2023-04-01T01:37:46.166Z,15.20
2023-04-01T01:40:31.956Z,16.90
2023-04-01T01:43:18.626Z,14.50
2023-04-01T01:46:10.572Z,15.20
2023-04-01T01:48:55.582Z,13.30
2023-04-01T01:51:40.170Z,13.70
2023-04-01T01:54:25.295Z,13.10
2023-04-01T01:57:10.685Z,15.70
2023-04-01T02:00:04.261Z,16.30
2023-04-01T02:03:07.659Z,14.60
2023-04-01T02:05:54.402Z,15.30
2023-04-01T02:08:58.250Z,19.50
2023-04-01T02:11:45.216Z,17.10
2023-04-01T02:14:38.490Z,17.90
2023-04-01T02:17:25.117Z,17.10
2023-04-01T02:20:31.141Z,15.40
2023-04-01T02:23:15.089Z,13.40
2023-04-01T02:25:58.518Z,18.20
2023-04-01T02:28:44.924Z,15.40
2023-04-01T02:31:29.250Z,14.10
2023-04-01T02:34:13.091Z,15.20
2023-04-01T02:36:58.096Z,16.00
2023-04-01T02:39:41.604Z,16.10
2023-04-01T02:42:24.617Z,18.40
2023-04-01T02:45:08.761Z,15.00
2023-04-01T02:47:51.797Z,12.60
2023-04-01T02:50:35.567Z,15.90
2023-04-01T02:53:18.650Z,14.30
2023-04-01T02:56:02.018Z,16.50
2023-04-01T02:58:46.000Z,16.30
2023-04-01T03:01:29.242Z,15.50
2023-04-01T03:04:12.667Z,14.60
2023-04-01T03:06:56.564Z,17.30
2023-04-01T03:09:40.138Z,17.40
2023-04-01T03:12:23.334Z,14.70
2023-04-01T03:15:10.604Z,20.10
2023-04-01T03:17:55.839Z,18.00
2023-04-01T03:20:39.019Z,15.30
2023-04-01T03:23:22.205Z,16.00
2023-04-01T03:26:06.036Z,15.00
2023-04-01T03:28:49.681Z,15.90
2023-04-01T03:31:33.178Z,19.40
2023-04-01T03:34:17.149Z,13.70
2023-04-01T03:37:01.129Z,15.50
2023-04-01T03:39:44.735Z,16.30
2023-04-01T03:42:28.228Z,15.20
2023-04-01T03:45:13.816Z,15.80
2023-04-01T03:47:57.677Z,17.10
2023-04-01T03:50:41.332Z,16.10
2023-04-01T03:53:24.592Z,16.80
2023-04-01T03:56:11.292Z,18.10
2023-04-01T03:58:55.038Z,18.70
2023-04-01T04:01:39.070Z,17.40
2023-04-01T04:04:22.952Z,18.80
2023-04-01T04:07:06.627Z,18.00
2023-04-01T04:10:04.881Z,18.40
2023-04-01T04:12:48.402Z,18.10
2023-04-01T04:15:32.811Z,19.30
2023-04-01T04:18:16.388Z,21.10
2023-04-01T04:21:00.253Z,21.10
2023-04-01T04:23:44.940Z,20.80
2023-04-01T04:26:28.886Z,18.90
2023-04-01T04:29:15.901Z,18.60
2023-04-01T04:32:01.044Z,18.20
2023-04-01T04:34:44.471Z,17.10
2023-04-01T04:37:27.870Z,18.90
2023-04-01T04:40:11.392Z,19.10
2023-04-01T04:42:55.150Z,15.70
2023-04-01T04:45:38.395Z,19.40
2023-04-01T04:48:21.617Z,17.90
2023-04-01T04:51:05.993Z,16.50
2023-04-01T04:53:51.559Z,17.60
2023-04-01T04:56:39.626Z,18.00
2023-04-01T04:59:26.346Z,16.10
2023-04-01T05:02:17.262Z,17.00
2023-04-01T05:05:00.542Z,17.30
2023-04-01T05:07:44.641Z,16.50
2023-04-01T05:10:28.326Z,19.30
2023-04-01T05:13:11.998Z,15.10
2023-04-01T05:16:13.339Z,17.10
2023-04-01T05:18:57.641Z,17.00
2023-04-01T05:21:41.306Z,17.50
2023-04-01T05:24:26.741Z,17.90
2023-04-01T05:27:10.549Z,18.70
2023-04-01T05:29:55.701Z,18.50
2023-04-01T05:33:14.821Z,17.80
2023-04-01T05:36:15.578Z,19.10
2023-04-01T05:38:58.989Z,21.50
2023-04-01T05:41:46.266Z,16.80
2023-04-01T05:44:29.676Z,20.10
2023-04-01T05:47:36.743Z,20.70
2023-04-01T05:50:21.342Z,19.30
2023-04-01T05:53:08.675Z,21.70
2023-04-01T05:55:53.684Z,19.30
2023-04-01T05:58:39.611Z,18.40
2023-04-01T06:01:25.069Z,19.00
2023-04-01T06:04:15.498Z,18.10
2023-04-01T06:06:58.840Z,20.70
2023-04-01T06:09:43.374Z,18.80
2023-04-01T06:12:43.517Z,22.50
2023-04-01T06:15:32.858Z,20.70
2023-04-01T06:18:47.472Z,16.90
2023-04-01T06:22:22.053Z,19.60
2023-04-01T06:25:51.342Z,18.30
2023-04-01T06:28:59.520Z,16.60
2023-04-01T06:32:13.744Z,17.20
2023-04-01T06:35:34.130Z,17.90
2023-04-01T06:38:27.050Z,19.10
2023-04-01T06:41:25.884Z,15.80
2023-04-01T06:44:23.666Z,16.20
2023-04-01T06:47:50.865Z,18.80
2023-04-01T06:51:11.138Z,16.60
2023-04-01T06:54:36.917Z,17.20
2023-04-01T06:57:46.754Z,16.70
2023-04-01T07:00:41.818Z,15.00
2023-04-01T07:03:45.618Z,13.60
2023-04-01T07:06:33.646Z,12.10
2023-04-01T07:09:25.818Z,12.40
2023-04-01T07:16:15.097Z,11.40
2023-04-01T07:19:18.249Z,11.20
2023-04-01T07:22:46.035Z,12.90
2023-04-01T07:26:03.165Z,12.00
2023-04-01T07:28:46.662Z,11.70
2023-04-01T07:32:12.106Z,12.50
2023-04-01T07:35:08.529Z,11.50
2023-04-01T07:38:20.601Z,14.40
2023-04-01T07:41:19.687Z,11.90
2023-04-01T07:44:23.916Z,9.50
2023-04-01T07:47:07.185Z,9.90
2023-04-01T07:50:12.687Z,11.60
2023-04-01T07:53:03.024Z,15.50
2023-04-01T07:55:51.294Z,14.60
2023-04-01T07:58:44.522Z,8.80
2023-04-01T08:02:15.570Z,12.40
2023-04-01T08:05:05.110Z,11.30
2023-04-01T08:08:17.732Z,10.10
2023-04-01T08:11:23.144Z,7.90
2023-04-01T08:14:57.025Z,7.90
2023-04-01T08:18:02.287Z,9.90
2023-04-01T08:20:57.127Z,11.10
2023-04-01T08:23:46.245Z,9.30
2023-04-01T08:26:46.794Z,11.40
2023-04-01T08:29:51.875Z,10.20
2023-04-01T08:32:41.138Z,12.10
2023-04-01T08:35:34.244Z,16.40
2023-04-01T08:38:29.852Z,15.80
2023-04-01T08:41:30.158Z,19.20
2023-04-01T08:45:01.413Z,20.60
2023-04-01T08:48:17.303Z,18.90
2023-04-01T08:51:20.058Z,20.80
2023-04-01T08:57:37.728Z,22.00
2023-04-01T09:01:14.816Z,22.00
2023-04-01T09:04:20.556Z,20.70
2023-04-01T09:07:21.046Z,18.00
2023-04-01T09:10:24.734Z,17.60
2023-04-01T09:13:49.496Z,23.50
2023-04-01T09:17:13.081Z,20.40
2023-04-01T09:20:18.887Z,20.40
2023-04-01T09:23:41.249Z,19.80
2023-04-01T09:26:48.164Z,19.60
2023-04-01T09:29:48.883Z,18.40
2023-04-01T09:33:10.062Z,17.20
2023-04-01T09:36:06.739Z,20.20
2023-04-01T09:39:19.146Z,22.90
2023-04-01T09:42:45.596Z,22.70
2023-04-01T09:46:09.620Z,22.00
2023-04-01T09:48:54.035Z,25.70
2023-04-01T09:51:46.761Z,25.20
2023-04-01T09:54:48.918Z,28.00
2023-04-01T09:58:24.391Z,23.10
2023-04-01T10:01:59.127Z,28.10
2023-04-01T10:04:50.806Z,25.10
2023-04-01T10:07:59.287Z,29.50
2023-04-01T10:10:57.796Z,31.10
2023-04-01T10:14:31.988Z,31.80
2023-04-01T10:17:51.918Z,35.10
2023-04-01T10:20:55.912Z,30.80
2023-04-01T10:23:48.349Z,30.00
2023-04-01T10:27:06.580Z,31.30
2023-04-01T10:30:37.363Z,30.80
2023-04-01T10:33:32.198Z,29.80
2023-04-01T10:36:42.315Z,31.50
2023-04-01T10:39:47.473Z,34.60
2023-04-01T10:42:57.395Z,38.40
2023-04-01T10:46:28.955Z,36.20
2023-04-01T10:49:42.691Z,33.70
2023-04-01T10:52:40.835Z,36.70
2023-04-01T10:56:31.576Z,41.50
2023-04-01T10:59:44.536Z,38.60
2023-04-01T11:02:56.679Z,39.50
2023-04-01T11:06:13.558Z,44.00
2023-04-01T11:09:34.596Z,35.50
2023-04-01T11:12:43.650Z,36.70
2023-04-01T11:16:21.892Z,35.40
2023-04-01T11:19:41.835Z,35.70
2023-04-01T11:22:50.029Z,29.20
2023-04-01T11:25:42.336Z,43.40
2023-04-01T11:29:10.906Z,38.20
2023-04-01T11:32:22.313Z,36.50
2023-04-01T11:35:17.119Z,34.70
2023-04-01T11:43:47.186Z,29.80
2023-04-01T11:47:20.165Z,26.90
2023-04-01T11:51:22.417Z,25.70
2023-04-01T11:55:04.828Z,31.00
2023-04-01T11:58:25.725Z,32.40
2023-04-01T12:01:56.877Z,29.50
2023-04-01T12:04:59.804Z,28.30
2023-04-01T12:08:27.579Z,25.50
2023-04-01T12:11:42.934Z,22.80
2023-04-01T12:14:38.919Z,21.00
2023-04-01T12:17:52.207Z,19.40
2023-04-01T12:20:40.990Z,23.60
2023-04-01T12:23:49.068Z,21.60
2023-04-01T12:27:02.628Z,21.40
2023-04-01T12:30:04.472Z,21.40
2023-04-01T12:32:47.753Z,22.20
2023-04-01T12:36:02.472Z,24.50
2023-04-01T12:39:20.704Z,22.80
2023-04-01T12:42:32.526Z,21.40
2023-04-01T12:45:32.863Z,23.10
2023-04-01T12:48:38.036Z,19.60
2023-04-01T12:51:30.331Z,19.40
2023-04-01T12:58:03.199Z,23.50
2023-04-01T13:01:11.266Z,19.80
2023-04-01T13:04:04.875Z,17.10
2023-04-01T13:07:18.549Z,16.00
2023-04-01T13:10:26.034Z,16.40
2023-04-01T13:13:20.113Z,14.00
2023-04-01T13:16:21.756Z,13.90
2023-04-01T13:19:29.868Z,13.60
2023-04-01T13:22:27.874Z,14.70
2023-04-01T13:25:36.059Z,16.50
2023-04-01T13:28:32.971Z,15.20
2023-04-01T13:31:28.880Z,15.10
2023-04-01T13:34:43.513Z,14.30
2023-04-01T13:37:59.580Z,13.00
2023-04-01T13:41:19.742Z,12.70
2023-04-01T13:44:15.761Z,12.80
2023-04-01T13:47:20.287Z,18.90
2023-04-01T13:50:19.017Z,11.60
2023-04-01T13:53:34.921Z,10.40
2023-04-01T13:56:36.044Z,10.10
2023-04-01T13:59:57.440Z,8.10
2023-04-01T14:02:50.065Z,12.10
2023-04-01T14:05:44.189Z,12.50
2023-04-01T14:09:01.660Z,12.80
2023-04-01T14:12:06.960Z,13.40
2023-04-01T14:15:23.560Z,13.50
2023-04-01T14:18:14.759Z,12.30
2023-04-01T14:21:09.045Z,12.30
2023-04-01T14:24:23.963Z,11.60
2023-04-01T14:27:43.739Z,10.10
2023-04-01T14:30:38.659Z,13.40
2023-04-01T14:34:00.116Z,13.20
2023-04-01T14:36:46.732Z,10.90
2023-04-01T14:39:56.070Z,13.30
2023-04-01T14:43:07.215Z,12.10
2023-04-01T14:46:28.286Z,10.50
2023-04-01T14:49:26.259Z,10.70
2023-04-01T14:52:26.004Z,10.90
2023-04-01T14:55:38.557Z,9.60
2023-04-01T14:58:27.314Z,12.10
2023-04-01T15:01:27.442Z,12.10
2023-04-01T15:04:39.976Z,11.40
2023-04-01T15:07:37.061Z,10.20
2023-04-01T15:10:21.941Z,11.20
2023-04-01T15:13:34.433Z,10.50
2023-04-01T15:16:53.269Z,12.90
2023-04-01T15:20:12.592Z,10.50
2023-04-01T15:23:11.563Z,10.80
2023-04-01T15:26:11.280Z,14.00
2023-04-01T15:29:13.647Z,10.70
2023-04-01T15:32:23.015Z,9.10
2023-04-01T15:35:22.876Z,8.30
2023-04-01T15:38:41.122Z,10.70
2023-04-01T15:41:49.833Z,10.90
2023-04-01T15:44:54.119Z,10.60
2023-04-01T15:47:42.531Z,9.20
2023-04-01T15:50:49.912Z,9.60
2023-04-01T15:54:14.760Z,9.50
2023-04-01T15:57:27.993Z,8.40
2023-04-01T16:03:40.439Z,9.00
2023-04-01T16:06:37.628Z,9.00
2023-04-01T16:10:11.428Z,8.40
2023-04-01T16:13:26.352Z,7.90
2023-04-01T16:16:27.781Z,10.30
2023-04-01T16:19:30.922Z,9.40
2023-04-01T16:22:21.371Z,9.40
2023-04-01T16:25:32.141Z,17.50
2023-04-01T16:28:30.987Z,8.10
2023-04-01T16:31:34.348Z,8.50
2023-04-01T16:34:37.262Z,9.70
2023-04-01T16:40:36.183Z,10.00
2023-04-01T16:43:48.842Z,11.30
2023-04-01T16:46:45.423Z,11.00
2023-04-01T16:50:00.767Z,11.40
2023-04-01T16:53:02.020Z,12.30
2023-04-01T16:56:08.900Z,13.30
2023-04-01T16:59:07.745Z,12.40
2023-04-01T17:02:02.135Z,18.90
2023-04-01T17:05:09.677Z,15.00
2023-04-01T17:08:02.884Z,23.70
2023-04-01T17:10:59.324Z,19.90
2023-04-01T17:13:45.556Z,14.20
2023-04-01T17:16:47.325Z,13.90
2023-04-01T17:19:42.596Z,14.00
2023-04-01T17:22:47.889Z,15.30
2023-04-01T17:25:45.998Z,18.00
2023-04-01T17:28:37.471Z,14.40
2023-04-01T17:31:27.083Z,16.20
2023-04-01T17:34:15.916Z,14.70
2023-04-01T17:37:18.678Z,15.50
2023-04-01T17:40:27.925Z,12.50
2023-04-01T17:43:22.908Z,16.20
2023-04-01T17:46:26.524Z,14.50
2023-04-01T17:49:47.159Z,12.50
2023-04-01T17:53:11.839Z,12.40
2023-04-01T17:56:19.093Z,13.10
2023-04-01T17:59:02.584Z,13.60
2023-04-01T18:02:30.530Z,13.70
2023-04-01T18:05:35.461Z,13.60
2023-04-01T18:08:40.914Z,12.50
2023-04-01T18:11:28.022Z,11.40
2023-04-01T18:14:21.689Z,12.40
2023-04-01T18:17:25.892Z,13.50
2023-04-01T18:20:44.676Z,10.70
2023-04-01T18:23:52.116Z,10.90
2023-04-01T18:26:50.371Z,9.70
2023-04-01T18:29:59.026Z,11.00
2023-04-01T18:33:16.563Z,12.20
2023-04-01T18:36:16.213Z,11.20
2023-04-01T18:39:38.169Z,10.90
2023-04-01T18:42:30.307Z,13.40
2023-04-01T18:48:23.092Z,15.60
2023-04-01T18:51:15.853Z,13.00
2023-04-01T18:54:06.681Z,9.80
2023-04-01T18:56:51.274Z,10.40
2023-04-01T18:59:42.092Z,9.70
2023-04-01T19:02:44.732Z,8.80
2023-04-01T19:05:44.618Z,12.90
2023-04-01T19:08:30.179Z,15.20
2023-04-01T19:11:33.263Z,9.40
2023-04-01T19:14:48.607Z,12.50
2023-04-01T19:17:53.173Z,12.60
2023-04-01T19:20:55.127Z,8.60
2023-04-01T19:24:01.402Z,9.20
2023-04-01T19:26:44.438Z,11.80
2023-04-01T19:29:32.103Z,11.70
2023-04-01T19:32:35.862Z,14.70
2023-04-01T19:35:47.305Z,10.20
2023-04-01T19:38:59.821Z,9.90
2023-04-01T19:42:09.978Z,10.80
2023-04-01T19:45:09.523Z,11.40
2023-04-01T19:48:04.561Z,9.40
2023-04-01T19:50:57.917Z,12.90
2023-04-01T19:54:16.225Z,9.80
2023-04-01T19:57:06.551Z,9.20
2023-04-01T19:59:55.078Z,12.90
2023-04-01T20:03:06.974Z,11.00
2023-04-01T20:06:32.851Z,11.20
2023-04-01T20:09:56.789Z,14.00
2023-04-01T20:13:11.937Z,11.90
2023-04-01T20:16:25.703Z,9.40
2023-04-01T20:19:12.941Z,10.40
2023-04-01T20:22:03.369Z,10.10
2023-04-01T20:24:48.562Z,12.20
2023-04-01T20:27:45.498Z,11.90
2023-04-01T20:31:24.171Z,12.70
2023-04-01T20:34:34.731Z,9.10
2023-04-01T20:37:41.148Z,9.10
2023-04-01T20:40:48.605Z,10.60
2023-04-01T20:44:06.426Z,11.60
2023-04-01T20:47:04.742Z,11.70
2023-04-01T20:50:09.864Z,9.30
2023-04-01T20:52:58.790Z,8.80
2023-04-01T20:56:03.302Z,8.80
2023-04-01T20:58:49.855Z,10.40
2023-04-01T21:02:06.573Z,12.00
2023-04-01T21:05:08.287Z,11.00
2023-04-01T21:08:15.777Z,12.10
2023-04-01T21:11:29.816Z,10.40
2023-04-01T21:14:31.348Z,10.00
2023-04-01T21:17:29.387Z,10.40
2023-04-01T21:20:35.227Z,11.60
2023-04-01T21:23:39.128Z,13.10
2023-04-01T21:26:32.440Z,17.20
2023-04-01T21:29:44.760Z,12.70
2023-04-01T21:32:57.079Z,16.80
2023-04-01T21:36:00.730Z,16.10
2023-04-01T21:39:01.273Z,13.40
2023-04-01T21:42:05.312Z,15.80
2023-04-01T21:44:54.134Z,20.30
2023-04-01T21:47:46.628Z,20.20
2023-04-01T21:50:41.719Z,19.30
2023-04-01T21:54:00.821Z,16.30
2023-04-01T21:57:15.470Z,18.70
2023-04-01T22:00:51.114Z,17.20
2023-04-01T22:03:40.747Z,19.30
2023-04-01T22:06:42.098Z,18.10
2023-04-01T22:09:48.007Z,19.00
2023-04-01T22:12:51.476Z,18.70
2023-04-01T22:15:52.402Z,16.20
2023-04-01T22:19:00.771Z,19.80
2023-04-01T22:21:52.989Z,18.10
2023-04-01T22:24:42.926Z,13.60
2023-04-01T22:27:51.339Z,18.20
2023-04-01T22:31:02.274Z,14.60
2023-04-01T22:33:45.932Z,15.00
2023-04-01T22:36:40.818Z,17.30
2023-04-01T22:39:51.012Z,15.80
2023-04-01T22:42:45.688Z,14.80
2023-04-01T22:45:42.232Z,16.40
2023-04-01T22:48:40.180Z,16.90
2023-04-01T22:51:32.849Z,14.00
2023-04-01T22:54:37.653Z,12.60
2023-04-01T22:57:36.582Z,16.50
2023-04-01T23:00:35.291Z,16.50
2023-04-01T23:03:26.651Z,12.50
2023-04-01T23:06:26.239Z,15.30
2023-04-01T23:09:17.731Z,12.00
2023-04-01T23:12:15.630Z,12.50
2023-04-01T23:15:03.928Z,13.00
2023-04-01T23:17:57.778Z,15.40
2023-04-01T23:20:52.898Z,13.30
2023-04-01T23:24:01.092Z,9.70
2023-04-01T23:26:59.526Z,10.90
2023-04-01T23:29:43.958Z,11.20
2023-04-01T23:32:28.455Z,13.20
2023-04-01T23:35:18.043Z,13.30
2023-04-01T23:38:02.099Z,11.10
2023-04-01T23:40:48.554Z,14.80
2023-04-01T23:43:39.169Z,14.20
2023-04-01T23:46:23.011Z,16.60
2023-04-01T23:49:12.861Z,15.80
2023-04-01T23:52:41.686Z,18.20
2023-04-01T23:55:32.592Z,14.30
2023-04-01T23:58:41.856Z,11.30
